Time;durP1;ratioP1;P1;durP2;ratioP2;P2;SDS_P1;SDS_P2;PMS_P1;PMS_P2;Temp;Humidity;BMP_temperature;BMP_pressure;BME280_temperature;BME280_humidity;BME280_pressure;Samples;Min_cycle;Max_cycle;Signal;HPM_P1;HPM_P2
2024/01/28 00:00:53;;;;;;;0.50;0.50;;;;;;;-0.51;81.53;99339.84;5021873;28;20052;-72
2024/01/28 00:03:21;;;;;;;0.65;0.65;;;;;;;-0.51;81.34;99338.09;5030900;28;20515;-72
2024/01/28 00:05:51;;;;;;;0.52;0.52;;;;;;;-0.47;81.33;99325.66;5030878;28;20132;-72
2024/01/28 00:08:19;;;;;;;0.60;0.60;;;;;;;-0.51;81.15;99326.75;5030936;28;20140;-72
2024/01/28 00:10:46;;;;;;;0.52;0.52;;;;;;;-0.40;79.92;99322.63;5016061;28;20052;-72
2024/01/28 00:13:18;;;;;;;0.65;0.65;;;;;;;-0.47;79.68;99316.03;5020503;28;20038;-72
2024/01/28 00:15:48;;;;;;;0.63;0.63;;;;;;;-0.61;79.93;99313.28;5030611;28;20248;-72
2024/01/28 00:18:16;;;;;;;0.40;0.40;;;;;;;-0.54;79.42;99314.69;5019954;28;20440;-72
2024/01/28 00:20:44;;;;;;;0.40;0.40;;;;;;;-0.68;80.17;99316.34;5023722;28;20042;-72
2024/01/28 00:23:11;;;;;;;0.52;0.50;;;;;;;-0.85;80.78;99315.47;5031624;28;20042;-72
2024/01/28 00:25:39;;;;;;;0.40;0.40;;;;;;;-0.69;80.33;99315.47;5027808;28;20073;-72
2024/01/28 00:28:07;;;;;;;0.45;0.45;;;;;;;-0.66;80.63;99314.47;5025968;28;20089;-73
2024/01/28 00:30:36;;;;;;;0.50;0.43;;;;;;;-0.57;80.40;99319.22;5007257;28;20452;-74
2024/01/28 00:33:04;;;;;;;0.65;0.65;;;;;;;-0.59;80.68;99319.31;5026579;28;20069;-73
2024/01/28 00:35:33;;;;;;;0.40;0.40;;;;;;;-0.85;81.57;99314.63;5021332;28;20045;-73
2024/01/28 00:38:01;;;;;;;0.52;0.52;;;;;;;-0.95;82.78;99316.88;5025753;28;20056;-73
2024/01/28 00:40:30;;;;;;;0.65;0.65;;;;;;;-0.96;83.38;99317.78;5025776;28;20152;-72
2024/01/28 00:42:58;;;;;;;0.47;0.47;;;;;;;-0.90;83.49;99314.00;5014441;28;20037;-73
2024/01/28 00:45:25;;;;;;;0.40;0.40;;;;;;;-0.87;83.25;99309.44;5030430;28;20049;-73
2024/01/28 00:47:54;;;;;;;0.60;0.60;;;;;;;-0.88;83.33;99304.28;5031000;28;20048;-72
2024/01/28 00:50:22;;;;;;;0.52;0.52;;;;;;;-0.92;83.79;99289.63;5031573;28;20124;-72
2024/01/28 00:52:50;;;;;;;0.52;0.52;;;;;;;-0.93;84.82;99287.94;5013798;28;20068;-71
2024/01/28 00:55:17;;;;;;;0.63;0.63;;;;;;;-0.89;85.18;99292.09;5039789;28;20045;-72
2024/01/28 00:57:45;;;;;;;0.30;0.30;;;;;;;-0.88;85.69;99284.16;5030899;28;20029;-73
2024/01/28 01:00:13;;;;;;;0.38;0.38;;;;;;;-0.82;85.49;99291.69;5028960;28;20052;-73
2024/01/28 01:02:41;;;;;;;0.40;0.40;;;;;;;-0.85;85.44;99288.41;5025904;28;20053;-72
2024/01/28 01:05:10;;;;;;;0.90;0.60;;;;;;;-0.76;85.54;99283.53;5008542;28;20080;-72
2024/01/28 01:07:38;;;;;;;0.45;0.45;;;;;;;-0.72;85.40;99278.94;5024211;28;20400;-72
2024/01/28 01:10:08;;;;;;;0.57;0.57;;;;;;;-0.66;85.15;99283.88;5035452;28;20065;-72
2024/01/28 01:12:36;;;;;;;0.40;0.40;;;;;;;-0.65;85.07;99282.09;5034567;28;20054;-71
2024/01/28 01:15:05;;;;;;;0.40;0.40;;;;;;;-0.70;84.85;99276.25;5019530;28;20050;-71
2024/01/28 01:17:32;;;;;;;0.40;0.40;;;;;;;-0.66;85.14;99273.38;5030039;28;20129;-71
2024/01/28 01:20:01;;;;;;;0.55;0.55;;;;;;;-0.62;84.72;99280.13;5029188;28;20393;-71
2024/01/28 01:22:30;;;;;;;0.40;0.40;;;;;;;-0.64;84.61;99270.69;5029584;28;20060;-71
2024/01/28 01:24:57;;;;;;;0.82;0.82;;;;;;;-0.80;84.60;99281.13;5038830;28;20040;-71
2024/01/28 01:27:25;;;;;;;0.57;0.50;;;;;;;-0.78;84.38;99284.53;5033444;28;20037;-71
2024/01/28 01:29:53;;;;;;;0.63;0.63;;;;;;;-0.70;83.82;99271.00;5025511;28;20046;-71
2024/01/28 01:32:20;;;;;;;0.88;0.88;;;;;;;-0.70;83.66;99271.84;5022165;28;20046;-70
2024/01/28 01:34:48;;;;;;;0.40;0.40;;;;;;;-0.77;84.36;99267.88;5035912;28;20042;-70
2024/01/28 01:37:16;;;;;;;0.82;0.82;;;;;;;-0.85;84.60;99276.16;5033418;28;20048;-71
2024/01/28 01:39:45;;;;;;;0.65;0.60;;;;;;;-0.78;84.50;99266.19;5029913;28;20116;-73
2024/01/28 01:42:12;;;;;;;0.60;0.50;;;;;;;-0.82;84.04;99272.50;5022297;28;20045;-71
2024/01/28 01:44:40;;;;;;;0.52;0.52;;;;;;;-0.77;83.09;99276.59;5022617;28;20049;-73
2024/01/28 01:47:08;;;;;;;0.55;0.55;;;;;;;-0.82;82.50;99268.09;5030524;28;20056;-72
2024/01/28 01:49:36;;;;;;;0.63;0.40;;;;;;;-0.92;82.19;99264.28;5018060;28;20042;-71
2024/01/28 01:52:05;;;;;;;0.55;0.52;;;;;;;-1.02;82.73;99275.34;5016436;28;20053;-71
2024/01/28 01:54:32;;;;;;;1.17;1.17;;;;;;;-1.12;83.54;99270.59;5021621;28;20065;-71
2024/01/28 01:57:02;;;;;;;0.75;0.60;;;;;;;-1.08;83.46;99276.53;5025893;28;20487;-71
2024/01/28 01:59:30;;;;;;;0.40;0.30;;;;;;;-1.22;82.89;99281.63;5023314;28;20107;-71
2024/01/28 02:02:00;;;;;;;0.50;0.50;;;;;;;-1.26;83.77;99285.34;5017830;28;20124;-71
2024/01/28 02:04:28;;;;;;;0.50;0.50;;;;;;;-1.35;83.73;99283.19;5022120;28;20524;-73
2024/01/28 02:06:55;;;;;;;0.60;0.60;;;;;;;-1.26;82.68;99280.94;5028651;28;20053;-70
2024/01/28 02:09:23;;;;;;;0.40;0.40;;;;;;;-1.26;83.88;99280.09;5013475;28;20064;-73
2024/01/28 02:11:51;;;;;;;0.73;0.73;;;;;;;-1.27;84.01;99284.50;5020344;28;20053;-70
2024/01/28 02:14:23;;;;;;;0.43;0.43;;;;;;;-1.22;83.97;99281.63;5019002;28;20038;-70
2024/01/28 02:16:51;;;;;;;0.40;0.40;;;;;;;-1.14;83.85;99271.59;5018564;28;20072;-70
2024/01/28 02:19:19;;;;;;;0.55;0.55;;;;;;;-1.22;84.57;99273.75;5033221;28;20115;-70
2024/01/28 02:21:47;;;;;;;0.73;0.73;;;;;;;-1.24;84.86;99286.94;5028109;28;20046;-70
2024/01/28 02:24:16;;;;;;;0.40;0.40;;;;;;;-1.20;85.31;99278.00;5022132;28;20143;-71
2024/01/28 02:26:43;;;;;;;0.75;0.75;;;;;;;-1.09;85.29;99274.81;5016095;28;20077;-71
2024/01/28 02:29:11;;;;;;;0.55;0.50;;;;;;;-1.01;85.00;99272.63;5030691;28;20041;-70
2024/01/28 02:31:39;;;;;;;0.40;0.40;;;;;;;-1.02;84.76;99272.72;5028802;28;20456;-71
2024/01/28 02:34:06;;;;;;;0.63;0.63;;;;;;;-0.99;84.58;99276.03;5029179;28;20048;-72
2024/01/28 02:36:34;;;;;;;0.40;0.40;;;;;;;-0.92;84.03;99272.16;5031061;28;20052;-71
2024/01/28 02:39:01;;;;;;;0.75;0.68;;;;;;;-1.02;83.37;99265.69;5025868;28;20099;-72
2024/01/28 02:41:31;;;;;;;0.57;0.57;;;;;;;-1.11;82.95;99268.81;5032610;28;20053;-72
2024/01/28 02:43:59;;;;;;;0.95;0.55;;;;;;;-1.09;84.03;99271.34;5020686;28;20044;-70
2024/01/28 02:46:26;;;;;;;0.63;0.63;;;;;;;-1.07;84.26;99269.50;5015554;28;20049;-70
2024/01/28 02:48:54;;;;;;;0.50;0.50;;;;;;;-1.14;84.39;99268.97;5000954;28;20042;-70
2024/01/28 02:51:22;;;;;;;0.65;0.65;;;;;;;-1.09;84.53;99273.97;5026591;28;20040;-71
2024/01/28 02:53:50;;;;;;;0.52;0.52;;;;;;;-1.11;84.76;99274.03;5025305;28;20107;-71
2024/01/28 02:56:17;;;;;;;0.30;0.30;;;;;;;-1.09;84.31;99277.44;5020062;28;20050;-73
2024/01/28 02:58:46;;;;;;;0.55;0.55;;;;;;;-1.12;84.77;99269.72;5020864;28;20481;-71
2024/01/28 03:01:14;;;;;;;0.38;0.38;;;;;;;-1.16;84.73;99271.69;5023626;28;20245;-71
2024/01/28 03:03:41;;;;;;;0.80;0.80;;;;;;;-1.23;84.87;99269.44;5037357;28;20049;-71
2024/01/28 03:06:10;;;;;;;0.43;0.43;;;;;;;-1.34;85.44;99266.53;5034305;28;20041;-71
2024/01/28 03:08:37;;;;;;;0.55;0.55;;;;;;;-1.34;85.58;99271.78;5025385;28;20369;-72
2024/01/28 03:11:05;;;;;;;0.40;0.40;;;;;;;-1.34;85.74;99264.75;5009983;28;20050;-72
2024/01/28 03:13:32;;;;;;;0.60;0.55;;;;;;;-1.35;85.58;99252.59;5025548;28;20041;-71
2024/01/28 03:16:01;;;;;;;0.55;0.55;;;;;;;-1.38;85.94;99265.00;5025876;28;20046;-71
2024/01/28 03:18:29;;;;;;;0.50;0.40;;;;;;;-1.43;86.20;99267.84;5021198;28;20049;-71
2024/01/28 03:20:57;;;;;;;0.63;0.63;;;;;;;-1.37;86.10;99264.94;5034265;28;20046;-72
2024/01/28 03:23:25;;;;;;;0.57;0.52;;;;;;;-1.31;85.68;99269.84;5036459;28;20048;-71
2024/01/28 03:25:52;;;;;;;0.73;0.73;;;;;;;-1.36;85.95;99266.63;5025684;28;20052;-71
2024/01/28 03:28:20;;;;;;;0.50;0.50;;;;;;;-1.40;86.13;99272.09;5024408;28;20058;-71
2024/01/28 03:30:48;;;;;;;0.73;0.73;;;;;;;-1.36;86.47;99269.25;5032557;28;20120;-72
2024/01/28 03:33:17;;;;;;;0.60;0.60;;;;;;;-1.43;86.50;99267.84;5035153;28;20500;-72
2024/01/28 03:35:45;;;;;;;0.60;0.60;;;;;;;-1.40;86.66;99272.94;5025702;28;20042;-73
2024/01/28 03:38:12;;;;;;;0.70;0.70;;;;;;;-1.37;86.53;99270.19;5034121;28;20542;-72
2024/01/28 03:40:40;;;;;;;0.75;0.75;;;;;;;-1.39;86.42;99266.78;5033721;28;20045;-72
2024/01/28 03:43:08;;;;;;;0.50;0.50;;;;;;;-1.31;86.19;99259.38;5042640;28;20152;-72
2024/01/28 03:45:35;;;;;;;0.40;0.40;;;;;;;-1.35;85.28;99268.31;5041427;28;20042;-72
2024/01/28 03:48:03;;;;;;;0.50;0.50;;;;;;;-1.43;84.87;99272.25;5033586;28;20119;-71
2024/01/28 03:50:32;;;;;;;0.55;0.40;;;;;;;-1.50;84.96;99269.94;5033480;28;20037;-72
2024/01/28 03:53:00;;;;;;;0.77;0.77;;;;;;;-1.52;84.64;99277.03;5034284;28;20045;-72
2024/01/28 03:55:27;;;;;;;0.70;0.70;;;;;;;-1.55;84.08;99271.09;5033088;28;20069;-73
2024/01/28 03:57:55;;;;;;;0.70;0.55;;;;;;;-1.72;84.48;99271.09;5033435;28;20507;-72
2024/01/28 04:00:28;;;;;;;0.52;0.52;;;;;;;-1.67;85.68;99274.34;5025273;28;20049;-72
2024/01/28 04:02:56;;;;;;;0.40;0.40;;;;;;;-1.61;85.83;99266.19;5027691;28;20527;-72
2024/01/28 04:05:24;;;;;;;0.65;0.65;;;;;;;-1.55;86.43;99271.09;5032587;28;20033;-73
2024/01/28 04:07:53;;;;;;;0.73;0.73;;;;;;;-1.60;86.67;99273.13;5030564;28;20534;-73
2024/01/28 04:10:21;;;;;;;0.47;0.47;;;;;;;-1.63;86.85;99279.34;5032699;28;20042;-72
2024/01/28 04:12:48;;;;;;;1.02;1.02;;;;;;;-1.66;87.66;99276.03;5032800;28;20087;-72
2024/01/28 04:15:16;;;;;;;0.38;0.38;;;;;;;-1.58;87.37;99274.72;5032076;28;20045;-73
2024/01/28 04:17:44;;;;;;;0.40;0.40;;;;;;;-1.56;87.28;99282.50;5027854;28;20044;-74
2024/01/28 04:20:12;;;;;;;0.40;0.40;;;;;;;-1.57;86.77;99284.28;5034115;28;20088;-71
2024/01/28 04:22:40;;;;;;;0.52;0.52;;;;;;;-1.66;86.54;99284.72;5026320;28;20079;-73
2024/01/28 04:25:09;;;;;;;1.00;0.82;;;;;;;-1.61;86.90;99281.88;5032964;28;20037;-73
2024/01/28 04:27:37;;;;;;;0.43;0.43;;;;;;;-1.63;86.97;99275.88;5015033;28;20068;-71
2024/01/28 04:30:06;;;;;;;0.55;0.55;;;;;;;-1.61;86.49;99266.19;5032687;28;20061;-73
2024/01/28 04:32:34;;;;;;;1.33;1.33;;;;;;;-1.61;86.94;99261.78;5032748;28;20049;-73
2024/01/28 04:35:02;;;;;;;0.50;0.50;;;;;;;-1.60;86.80;99260.03;5031916;28;20136;-71
2024/01/28 04:37:30;;;;;;;0.52;0.52;;;;;;;-1.59;87.01;99259.09;5031967;28;20053;-72
2024/01/28 04:39:57;;;;;;;0.52;0.52;;;;;;;-1.63;87.07;99253.16;5032188;28;20124;-72
2024/01/28 04:42:26;;;;;;;0.63;0.63;;;;;;;-1.63;87.01;99252.31;5039799;28;20068;-71
2024/01/28 04:44:54;;;;;;;0.57;0.57;;;;;;;-1.63;86.88;99247.09;5031832;28;20686;-72
2024/01/28 04:47:22;;;;;;;0.43;0.43;;;;;;;-1.70;87.13;99250.94;5031204;28;20060;-72
2024/01/28 04:49:49;;;;;;;0.40;0.40;;;;;;;-1.71;87.28;99250.09;5026159;28;20042;-72
2024/01/28 04:52:17;;;;;;;0.30;0.30;;;;;;;-1.66;87.30;99248.06;5028952;28;20075;-72
2024/01/28 04:54:44;;;;;;;0.45;0.40;;;;;;;-1.63;86.80;99241.84;5025170;28;20050;-72
2024/01/28 04:57:12;;;;;;;1.25;1.25;;;;;;;-1.63;86.65;99242.69;5030781;28;20087;-72
2024/01/28 04:59:41;;;;;;;0.70;0.70;;;;;;;-1.61;86.72;99242.63;5021991;28;20034;-72
2024/01/28 05:02:09;;;;;;;0.50;0.50;;;;;;;-1.60;86.26;99249.56;5027012;28;20072;-72
2024/01/28 05:04:36;;;;;;;0.70;0.70;;;;;;;-1.54;86.14;99251.84;5032080;28;20128;-71
2024/01/28 05:07:04;;;;;;;0.50;0.50;;;;;;;-1.59;86.58;99248.63;5032015;28;20440;-71
2024/01/28 05:09:32;;;;;;;0.60;0.60;;;;;;;-1.62;86.38;99252.25;5031663;28;20057;-71
2024/01/28 05:12:00;;;;;;;0.30;0.30;;;;;;;-1.56;86.27;99251.91;5031716;28;20501;-71
2024/01/28 05:14:27;;;;;;;0.40;0.40;;;;;;;-1.61;86.75;99251.31;5032199;28;20100;-71
2024/01/28 05:16:58;;;;;;;0.45;0.45;;;;;;;-1.59;86.82;99246.88;5032016;28;20080;-72
2024/01/28 05:19:26;;;;;;;0.35;0.35;;;;;;;-1.53;86.73;99253.53;5025833;28;20048;-72
2024/01/28 05:21:54;;;;;;;0.43;0.43;;;;;;;-1.54;86.84;99257.09;5011797;28;20049;-72
2024/01/28 05:24:21;;;;;;;0.52;0.52;;;;;;;-1.58;86.98;99256.41;5028751;28;20045;-72
2024/01/28 05:26:49;;;;;;;0.55;0.55;;;;;;;-1.55;87.03;99258.00;5016329;28;20060;-71
2024/01/28 05:29:17;;;;;;;1.05;1.05;;;;;;;-1.54;87.12;99257.94;5031620;28;20087;-71
2024/01/28 05:31:44;;;;;;;0.52;0.52;;;;;;;-1.53;86.86;99256.16;5028533;28;20416;-71
2024/01/28 05:34:13;;;;;;;0.60;0.60;;;;;;;-1.55;86.95;99252.78;5032170;28;20411;-71
2024/01/28 05:36:41;;;;;;;0.52;0.50;;;;;;;-1.52;87.11;99256.09;5031700;28;20052;-71
2024/01/28 05:39:09;;;;;;;0.68;0.68;;;;;;;-1.54;87.42;99263.16;5031684;28;20042;-70
2024/01/28 05:41:37;;;;;;;0.30;0.30;;;;;;;-1.56;87.30;99258.97;5052698;23;20053;-75
2024/01/28 05:44:05;;;;;;;0.55;0.55;;;;;;;-1.50;87.10;99264.72;5030844;28;20056;-75
2024/01/28 05:46:32;;;;;;;0.40;0.40;;;;;;;-1.52;87.23;99255.25;5027719;28;20141;-76
2024/01/28 05:49:00;;;;;;;0.68;0.68;;;;;;;-1.50;87.36;99256.84;5029789;28;20041;-75
2024/01/28 05:51:32;;;;;;;0.30;0.30;;;;;;;-1.49;87.71;99260.31;5029887;28;20054;-75
2024/01/28 05:54:00;;;;;;;0.52;0.50;;;;;;;-1.39;87.27;99256.31;5006413;28;20491;-76
2024/01/28 05:56:28;;;;;;;0.57;0.50;;;;;;;-1.39;87.38;99245.84;5032244;28;20041;-76
2024/01/28 05:58:55;;;;;;;0.63;0.63;;;;;;;-1.43;87.87;99251.28;5035450;28;20052;-78
2024/01/28 06:01:24;;;;;;;0.45;0.43;;;;;;;-1.39;88.01;99245.84;5033495;28;20057;-77
2024/01/28 06:03:52;;;;;;;0.52;0.52;;;;;;;-1.36;87.37;99248.31;5030412;28;20053;-77
2024/01/28 06:06:19;;;;;;;0.47;0.47;;;;;;;-1.38;87.65;99242.31;5031020;28;20037;-77
2024/01/28 06:08:48;;;;;;;0.38;0.38;;;;;;;-1.39;87.31;99245.00;5027679;28;20124;-77
2024/01/28 06:11:16;;;;;;;0.40;0.40;;;;;;;-1.38;87.38;99241.44;5029133;28;20117;-76
2024/01/28 06:13:43;;;;;;;0.57;0.57;;;;;;;-1.40;87.22;99241.53;5030012;28;20510;-76
2024/01/28 06:16:11;;;;;;;0.70;0.70;;;;;;;-1.39;87.23;99240.59;5030397;28;20061;-75
2024/01/28 06:18:43;;;;;;;0.35;0.35;;;;;;;-1.40;87.22;99244.16;5029831;28;20041;-77
2024/01/28 06:21:11;;;;;;;0.52;0.30;;;;;;;-1.39;87.41;99245.00;5030165;28;20384;-76
2024/01/28 06:23:40;;;;;;;0.40;0.40;;;;;;;-1.38;87.51;99239.69;5029935;28;20112;-76
2024/01/28 06:26:09;;;;;;;0.65;0.65;;;;;;;-1.36;87.31;99248.31;5023518;28;20498;-77
2024/01/28 06:28:37;;;;;;;0.60;0.60;;;;;;;-1.31;87.24;99251.53;5029495;28;20041;-77
2024/01/28 06:31:05;;;;;;;0.60;0.60;;;;;;;-1.28;87.39;99246.13;5032623;28;20042;-75
2024/01/28 06:33:32;;;;;;;0.40;0.40;;;;;;;-1.29;87.50;99260.16;5031064;28;20056;-76
2024/01/28 06:36:01;;;;;;;0.73;0.73;;;;;;;-1.26;87.37;99252.16;5041463;28;20045;-77
2024/01/28 06:38:30;;;;;;;0.30;0.30;;;;;;;-1.24;87.32;99255.50;5018397;28;20108;-76
2024/01/28 06:40:58;;;;;;;0.60;0.60;;;;;;;-1.24;87.81;99249.41;5036349;28;20413;-78
2024/01/28 06:43:27;;;;;;;0.63;0.63;;;;;;;-1.23;87.14;99251.97;5017298;28;20405;-76
2024/01/28 06:45:55;;;;;;;0.60;0.60;;;;;;;-1.18;87.35;99249.97;5034955;28;20121;-75
2024/01/28 06:48:22;;;;;;;0.45;0.45;;;;;;;-1.17;87.16;99242.94;5030014;28;20041;-77
2024/01/28 06:50:50;;;;;;;0.35;0.35;;;;;;;-1.09;87.24;99247.78;5032286;28;20096;-77
2024/01/28 06:53:18;;;;;;;0.63;0.63;;;;;;;-1.05;87.16;99257.19;5032302;28;20647;-77
2024/01/28 06:55:46;;;;;;;0.35;0.35;;;;;;;-1.05;86.84;99249.31;5034623;28;20049;-77
2024/01/28 06:58:13;;;;;;;0.43;0.43;;;;;;;-1.04;87.12;99256.25;5034783;28;20034;-76
2024/01/28 07:00:42;;;;;;;0.55;0.55;;;;;;;-1.01;87.08;99254.31;5033325;28;20032;-77
2024/01/28 07:03:10;;;;;;;0.30;0.30;;;;;;;-1.04;87.12;99257.09;5040431;28;20144;-77
2024/01/28 07:05:38;;;;;;;0.85;0.60;;;;;;;-0.94;86.87;99254.84;5026805;28;20050;-75
2024/01/28 07:08:08;;;;;;;0.47;0.47;;;;;;;-0.99;87.00;99251.59;5031367;28;20124;-75
2024/01/28 07:10:35;;;;;;;0.63;0.63;;;;;;;-0.98;87.10;99248.91;5024827;28;20064;-76
2024/01/28 07:13:03;;;;;;;0.35;0.35;;;;;;;-0.90;86.63;99259.81;5030253;28;20049;-75
2024/01/28 07:15:31;;;;;;;0.73;0.73;;;;;;;-0.98;86.77;99258.53;5029044;28;20049;-76
2024/01/28 07:18:00;;;;;;;0.32;0.32;;;;;;;-1.02;86.83;99259.63;5024538;28;20038;-76
2024/01/28 07:20:28;;;;;;;0.65;0.65;;;;;;;-1.03;87.02;99257.91;5027775;28;20041;-75
2024/01/28 07:22:56;;;;;;;0.40;0.40;;;;;;;-1.02;87.06;99267.47;5025072;28;20075;-75
2024/01/28 07:25:23;;;;;;;0.80;0.40;;;;;;;-0.99;86.96;99267.31;5026345;28;20497;-75
2024/01/28 07:27:52;;;;;;;0.45;0.45;;;;;;;-0.91;87.12;99267.75;5029500;28;20045;-77
2024/01/28 07:30:20;;;;;;;0.25;0.25;;;;;;;-0.89;86.67;99264.13;5030314;28;20124;-75
2024/01/28 07:32:48;;;;;;;0.52;0.52;;;;;;;-0.88;86.48;99259.75;5024784;28;20091;-76
2024/01/28 07:35:17;;;;;;;0.50;0.50;;;;;;;-0.76;86.74;99262.56;5030207;28;20400;-77
2024/01/28 07:37:44;;;;;;;0.57;0.57;;;;;;;-0.70;86.70;99253.50;5032427;28;20095;-77
2024/01/28 07:40:12;;;;;;;0.40;0.40;;;;;;;-0.64;85.82;99257.59;5013138;28;20049;-77
2024/01/28 07:42:40;;;;;;;0.20;0.20;;;;;;;-0.58;85.89;99246.75;5022435;28;20050;-77
2024/01/28 07:45:09;;;;;;;0.47;0.32;;;;;;;-0.58;86.12;99249.38;5024330;28;20046;-77
2024/01/28 07:47:37;;;;;;;0.63;0.63;;;;;;;-0.51;85.61;99245.47;5030748;28;20046;-77
2024/01/28 07:50:10;;;;;;;0.38;0.38;;;;;;;-0.45;85.52;99240.75;5030711;28;20740;-77
2024/01/28 07:52:40;;;;;;;0.38;0.38;;;;;;;-0.44;85.17;99233.72;5031102;28;20053;-77
2024/01/28 07:55:08;;;;;;;0.43;0.43;;;;;;;-0.40;85.17;99236.06;5033861;28;20127;-77
2024/01/28 07:57:36;;;;;;;0.43;0.43;;;;;;;-0.35;84.85;99237.63;5033890;28;20129;-77
2024/01/28 08:00:05;;;;;;;0.93;0.65;;;;;;;-0.32;85.00;99242.69;5037815;28;20103;-77
2024/01/28 08:02:38;;;;;;;0.63;0.63;;;;;;;-0.31;84.71;99247.00;5033056;28;20516;-77
2024/01/28 08:05:06;;;;;;;0.30;0.30;;;;;;;-0.29;84.75;99235.47;5036295;28;20044;-76
2024/01/28 08:07:34;;;;;;;0.43;0.43;;;;;;;-0.24;84.64;99238.72;5032568;28;20539;-77
2024/01/28 08:10:04;;;;;;;0.50;0.43;;;;;;;-0.22;84.34;99241.25;5016457;28;20428;-76
2024/01/28 08:12:32;;;;;;;0.43;0.43;;;;;;;-0.15;84.06;99239.97;5032515;28;20064;-76
2024/01/28 08:14:59;;;;;;;0.68;0.52;;;;;;;-0.09;83.78;99244.84;5030237;28;20128;-76
2024/01/28 08:17:27;;;;;;;0.73;0.73;;;;;;;-0.03;83.79;99239.25;5032155;28;20397;-76
2024/01/28 08:19:55;;;;;;;0.68;0.68;;;;;;;0.07;83.58;99232.56;5030676;28;20092;-76
2024/01/28 08:22:24;;;;;;;0.50;0.43;;;;;;;0.13;83.33;99234.81;5031411;28;20041;-75
2024/01/28 08:24:52;;;;;;;0.45;0.45;;;;;;;0.11;83.30;99234.03;5028885;28;20041;-76
2024/01/28 08:27:21;;;;;;;0.82;0.50;;;;;;;0.17;83.16;99225.84;5032162;28;20049;-75
2024/01/28 08:29:49;;;;;;;0.30;0.30;;;;;;;0.23;82.98;99217.59;5034364;28;20037;-76
2024/01/28 08:32:19;;;;;;;0.38;0.38;;;;;;;0.34;82.56;99223.06;5032296;28;20556;-76
2024/01/28 08:34:49;;;;;;;0.47;0.47;;;;;;;0.38;82.53;99222.88;5014993;28;20412;-77
2024/01/28 08:37:17;;;;;;;0.65;0.65;;;;;;;0.41;82.38;99223.56;5034887;28;20045;-76
2024/01/28 08:39:45;;;;;;;0.57;0.57;;;;;;;0.54;82.10;99221.03;5029183;28;20049;-76
2024/01/28 08:42:12;;;;;;;0.45;0.45;;;;;;;0.62;81.49;99219.63;5028449;28;20033;-76
2024/01/28 08:44:42;;;;;;;0.32;0.32;;;;;;;0.69;81.12;99212.25;5031683;28;20496;-77
2024/01/28 08:47:11;;;;;;;0.32;0.32;;;;;;;0.74;80.82;99218.03;5026340;28;20052;-77
2024/01/28 08:49:38;;;;;;;0.35;0.35;;;;;;;0.85;79.95;99220.88;5012568;28;20053;-76
2024/01/28 08:52:06;;;;;;;0.47;0.47;;;;;;;0.89;80.43;99227.63;5012143;28;20456;-75
2024/01/28 08:54:34;;;;;;;0.50;0.50;;;;;;;0.96;79.43;99220.22;5030722;28;20045;-76
2024/01/28 08:57:02;;;;;;;0.40;0.40;;;;;;;1.06;79.23;99227.44;5027796;28;20052;-77
2024/01/28 08:59:29;;;;;;;0.47;0.47;;;;;;;1.15;78.91;99222.53;5011647;28;20061;-76
2024/01/28 09:01:59;;;;;;;0.30;0.30;;;;;;;1.19;78.31;99234.56;5027933;28;20041;-76
2024/01/28 09:04:29;;;;;;;0.35;0.35;;;;;;;1.26;78.21;99228.81;5016055;28;20037;-77
2024/01/28 09:06:57;;;;;;;0.40;0.40;;;;;;;1.46;77.16;99235.47;5029757;28;20041;-76
2024/01/28 09:09:26;;;;;;;0.63;0.63;;;;;;;1.55;76.33;99234.91;5027292;28;20041;-76
2024/01/28 09:11:53;;;;;;;0.47;0.40;;;;;;;1.61;76.26;99237.13;5031759;28;20120;-77
2024/01/28 09:14:24;;;;;;;0.60;0.60;;;;;;;1.66;75.74;99228.94;5037473;28;20103;-76
2024/01/28 09:16:52;;;;;;;0.55;0.55;;;;;;;1.71;75.44;99232.97;5029825;28;20037;-77
2024/01/28 09:19:21;;;;;;;0.45;0.45;;;;;;;1.74;75.36;99237.19;5033429;28;20041;-78
2024/01/28 09:21:49;;;;;;;0.50;0.50;;;;;;;1.82;74.71;99237.53;5013295;28;20535;-76
2024/01/28 09:24:17;;;;;;;0.40;0.40;;;;;;;1.87;74.47;99248.59;5030506;28;20049;-77
2024/01/28 09:26:46;;;;;;;0.35;0.35;;;;;;;1.98;73.99;99242.63;5015196;28;20420;-76
2024/01/28 09:29:15;;;;;;;0.43;0.43;;;;;;;2.07;73.17;99236.78;5030803;28;20136;-74
2024/01/28 09:31:44;;;;;;;0.25;0.25;;;;;;;2.08;73.16;99241.94;5031851;28;20041;-76
2024/01/28 09:34:12;;;;;;;0.30;0.30;;;;;;;2.14;72.79;99243.34;5033203;28;20538;-76
2024/01/28 09:36:41;;;;;;;0.57;0.57;;;;;;;2.19;72.32;99249.97;5030973;28;20095;-75
2024/01/28 09:39:09;;;;;;;0.55;0.55;;;;;;;2.27;72.14;99256.53;5025998;28;20049;-76
2024/01/28 09:41:43;;;;;;;0.40;0.40;;;;;;;2.34;70.40;99257.81;5025109;28;20140;-76
2024/01/28 09:44:11;;;;;;;0.35;0.35;;;;;;;2.44;70.44;99251.00;5024463;28;20052;-72
2024/01/28 09:46:38;;;;;;;0.63;0.63;;;;;;;2.52;70.65;99252.16;5029545;28;20037;-76
2024/01/28 09:49:11;;;;;;;0.90;0.90;;;;;;;2.54;70.09;99249.44;5023695;28;20034;-76
2024/01/28 09:51:39;;;;;;;0.30;0.30;;;;;;;2.67;69.15;99265.25;5030689;28;20046;-76
2024/01/28 09:54:09;;;;;;;0.40;0.40;;;;;;;2.69;68.66;99258.09;5031450;28;20124;-76
2024/01/28 09:56:37;;;;;;;0.55;0.55;;;;;;;2.74;67.75;99270.00;5030395;28;20123;-76
2024/01/28 09:59:10;;;;;;;0.28;0.28;;;;;;;2.81;68.11;99262.50;5038034;28;20359;-76
2024/01/28 10:01:41;;;;;;;0.43;0.43;;;;;;;2.88;67.33;99263.81;5033339;28;20056;-74
2024/01/28 10:04:10;;;;;;;0.45;0.40;;;;;;;2.94;67.30;99258.94;5033070;28;20037;-76
2024/01/28 10:06:38;;;;;;;0.30;0.30;;;;;;;3.00;65.82;99252.41;5030108;28;20124;-75
2024/01/28 10:09:07;;;;;;;0.55;0.55;;;;;;;3.08;65.73;99250.09;5035793;28;20497;-76
2024/01/28 10:11:35;;;;;;;0.43;0.35;;;;;;;3.13;65.54;99241.84;5034156;28;20044;-76
2024/01/28 10:14:03;;;;;;;0.28;0.28;;;;;;;3.21;66.02;99248.28;5034932;28;20412;-76
2024/01/28 10:16:31;;;;;;;0.50;0.50;;;;;;;3.30;64.35;99242.34;5019811;28;20460;-75
2024/01/28 10:18:59;;;;;;;0.65;0.65;;;;;;;3.35;63.97;99238.53;5034047;28;20061;-76
2024/01/28 10:21:27;;;;;;;0.25;0.25;;;;;;;3.45;63.98;99234.28;5043762;28;20106;-76
2024/01/28 10:23:55;;;;;;;0.30;0.30;;;;;;;3.47;63.94;99220.03;5033324;28;20045;-75
2024/01/28 10:26:24;;;;;;;0.30;0.30;;;;;;;3.56;63.31;99223.81;5037656;28;20576;-75
2024/01/28 10:28:52;;;;;;;0.30;0.30;;;;;;;3.58;62.44;99212.19;5008655;28;20037;-76
2024/01/28 10:31:22;;;;;;;0.30;0.30;;;;;;;3.68;62.77;99215.84;5037829;28;20051;-76
2024/01/28 10:33:50;;;;;;;0.40;0.30;;;;;;;3.79;61.07;99206.31;5040516;28;20033;-76
2024/01/28 10:36:18;;;;;;;0.20;0.20;;;;;;;3.82;61.83;99216.66;5034072;28;20048;-76
2024/01/28 10:38:47;;;;;;;0.60;0.60;;;;;;;3.92;60.83;99201.81;5022662;28;20390;-76
2024/01/28 10:41:16;;;;;;;0.22;0.22;;;;;;;3.98;60.17;99206.63;5030047;28;20496;-76
2024/01/28 10:43:52;;;;;;;0.30;0.30;;;;;;;4.07;59.98;99200.66;5033108;28;20116;-76
2024/01/28 10:46:20;;;;;;;0.65;0.65;;;;;;;4.13;58.84;99196.75;5034410;28;20416;-76
2024/01/28 10:48:52;;;;;;;0.20;0.20;;;;;;;4.21;59.83;99194.38;5028159;28;20045;-75
2024/01/28 10:51:21;;;;;;;0.32;0.32;;;;;;;4.28;59.37;99191.13;5033555;28;20078;-76
2024/01/28 10:53:48;;;;;;;0.30;0.30;;;;;;;4.38;58.23;99180.72;5033732;28;20560;-76
2024/01/28 10:56:16;;;;;;;0.30;0.30;;;;;;;4.37;57.40;99176.38;5030345;28;20053;-76
2024/01/28 10:58:46;;;;;;;0.30;0.30;;;;;;;4.48;56.82;99176.41;5032595;28;20037;-76
2024/01/28 11:01:13;;;;;;;0.30;0.30;;;;;;;4.54;56.00;99169.81;5033656;28;20057;-75
2024/01/28 11:03:41;;;;;;;0.30;0.20;;;;;;;4.65;55.92;99161.91;5033436;28;20041;-76
2024/01/28 11:06:09;;;;;;;0.35;0.35;;;;;;;4.69;55.45;99156.25;5031042;28;20041;-76
2024/01/28 11:08:37;;;;;;;0.32;0.32;;;;;;;4.81;56.18;99151.81;5014302;28;20060;-76
2024/01/28 11:11:05;;;;;;;0.17;0.17;;;;;;;4.92;55.13;99150.97;5032797;28;20041;-76
2024/01/28 11:13:32;;;;;;;0.35;0.35;;;;;;;4.99;55.25;99144.22;5015499;28;20049;-76
2024/01/28 11:16:01;;;;;;;0.30;0.30;;;;;;;5.03;55.18;99135.09;5025935;28;20041;-75
2024/01/28 11:18:29;;;;;;;0.40;0.40;;;;;;;5.09;55.11;99139.88;5032078;28;20056;-76
2024/01/28 11:20:57;;;;;;;0.28;0.28;;;;;;;5.21;55.55;99140.72;5016636;28;20068;-76
2024/01/28 11:23:29;;;;;;;0.22;0.22;;;;;;;5.29;53.43;99133.03;5014559;28;20047;-75
2024/01/28 11:25:58;;;;;;;0.47;0.47;;;;;;;5.36;53.77;99145.66;5031265;28;20049;-76
2024/01/28 11:28:27;;;;;;;0.30;0.30;;;;;;;5.43;53.63;99138.88;5029365;28;20050;-76
2024/01/28 11:30:58;;;;;;;0.45;0.45;;;;;;;5.49;53.10;99133.09;5030044;28;20095;-76
2024/01/28 11:33:34;;;;;;;0.30;0.30;;;;;;;5.61;53.33;99133.03;5033382;28;20049;-75
2024/01/28 11:36:02;;;;;;;0.25;0.25;;;;;;;5.69;52.80;99131.47;5029953;28;20038;-75
2024/01/28 11:38:34;;;;;;;0.43;0.43;;;;;;;5.76;52.46;99124.69;5032791;28;20087;-75
2024/01/28 11:41:02;;;;;;;0.32;0.32;;;;;;;5.79;52.10;99129.75;5056238;22;20046;-71